Tha Wang Pha, Thailand

3:01 PM ICT on October 23, 2014 (GMT +0700)
Nan | Change Station
CLOSE
Current Station
Airport
Location: Nan,
Elevation: 659 ft
Nearby Weather Stations

Elev 659 ft 18.77 °N, 100.76 °E | Updated 1 hour ago

Scattered Clouds
Scattered Clouds
86 °F
Feels Like 88 °F
N
2
Wind Variable Wind from ENE

Today
High -- | Low -- °F
--% Chance of Precip.
Yesterday
High -- | Low -- °F
Precip. -- in
6:13 AM 5:48 PM
Waning Crescent, 0% visible
Pressure 29.92 in
Visibility 6.2 miles
Clouds Scattered Clouds 2500 ft
Scattered Clouds 10000 ft
Heat Index 88 °F
Dew Point 66 °F
Humidity 51%
Rainfall 0.00 in
Snow Depth Not available.
UV 8 out of 12
Pollen Not available.
Air Quality Not available.
Flu Activity Not available.
METAR VTCN 230700Z 06002KT 9999 SCT025 SCT100 30/19 Q1013 A2994

More Conditions Fewer Conditions

Pressure 29.92 in
Visibility 6.2 miles
Clouds Scattered Clouds 2500 ft
Scattered Clouds 10000 ft
Heat Index 88 °F
Dew Point 66 °F
Humidity 51%
Rainfall 0.00 in
Snow Depth Not available.
UV 8 out of 12
Pollen Not available.
Air Quality Not available.
Flu Activity Not available.
METAR VTCN 230700Z 06002KT 9999 SCT025 SCT100 30/19 Q1013 A2994

More Conditions Fewer Conditions

10-Day Weather Forecast

Almanac

Astronomy

Oct. 23, 2014 Rise Set
Actual Time 6:13 AM ICT 5:48 PM ICT
Civil Twilight 5:51 AM ICT 6:10 PM ICT
Nautical Twilight 5:25 AM ICT 6:36 PM ICT
Astronomical Twilight 4:59 AM ICT 7:02 PM ICT
Moon 5:28 AM ICT 5:27 PM ICT
Length of Visible Light 12h 19m
Length of Day
11h 35m
Tomorrow will be 1m 0s shorter.
Waning Crescent, 0% of the Moon is Illuminated
Today
Waning Crescent
Oct 23
New
Oct 30
First Quarter
Nov 6
Full
Nov 14
Last Quarter

Yesterday's Extremes

Country Highs Country Lows

Community

WunderPhotos

Upload Photos

1,764,194 photos uploaded!

Nearby

Snow Depth

Not available.

Earthquake Activity

City Distance Mag. Time & Date
No recent earthquake activity has been reported nearby.
Minimum magnitude displayed is 2.5.

Coastal Water Temperatures

Place Temperature
No Stations Reporting

Nearby Weather Stations